This is the latest recevied weather packets stored in our database for station/object VK5KX. If no packets are shown the sender has not sent any weather packets the latest 1 day(s).
| Time | Temp. | Humidity | Pressure | Rain* | Wind** | Luminosity | Snow |
|---|---|---|---|---|---|---|---|
| 1778042758 | 17.22° C | 82% | 1021.9 hPa | 0.25 mm | 1.79 m/s, 121° | - | - |
| 1778041850 | 17.22° C | 82% | 1021.9 hPa | 0.25 mm | 1.34 m/s, 160° | - | - |
| 1778040954 | 17.22° C | 84% | 1021.9 hPa | 0.25 mm | 1.34 m/s, 135° | - | - |
| 1778040047 | 16.67° C | 88% | 1022 hPa | 0.51 mm | 1.34 m/s, 174° | - | - |
| 1778039146 | 16.67° C | 89% | 1022.2 hPa | 0.51 mm | 0.89 m/s, 148° | - | - |
| 1778038243 | 16.67° C | 88% | 1022.1 hPa | 0.51 mm | 1.34 m/s, 154° | - | - |
| 1778037355 | 17.22° C | 83% | 1022.5 hPa | 0.51 mm | 1.34 m/s, 212° | - | - |
| 1778036456 | 18.33° C | 76% | 1022.4 hPa | 0 mm | 1.34 m/s, 240° | - | - |
| 1778035538 | 18.33° C | 74% | 1022.8 hPa | 0 mm | 1.34 m/s, 241° | - | - |
| 1778034638 | 18.33° C | 74% | 1023 hPa | 0 mm | 1.34 m/s, 290° | - | - |
| 1778033734 | 18.33° C | 75% | 1023.2 hPa | 0 mm | 0.89 m/s, 127° | - | - |
| 1778032831 | 17.78° C | 76% | 1023.3 hPa | 0 mm | 1.34 m/s, 156° | - | - |
| 1778031930 | 17.22° C | 79% | 1023.5 hPa | 0 mm | 0.45 m/s, 211° | - | - |
| 1778031026 | 16.67° C | 85% | 1023.7 hPa | 0 mm | 0.45 m/s, 198° | - | - |
| 1778030128 | 16.11° C | 86% | 1023.7 hPa | 0 mm | 0 m/s | - | - |
| 1778029220 | 15.56° C | 87% | 1023.8 hPa | 0 mm | 0.45 m/s, 329° | - | - |
| 1778028317 | 15.56° C | 87% | 1023.9 hPa | 0 mm | 0.45 m/s, 331° | - | - |
| 1778027416 | 15° C | 86% | 1024 hPa | 0 mm | 0.45 m/s, 329° | - | - |
| 1778026516 | 15° C | 87% | 1024 hPa | 0 mm | 0.45 m/s, 265° | - | - |
| 1778025611 | 15° C | 88% | 1024 hPa | 0 mm | 0.89 m/s, 258° | - | - |
| 1778024719 | 15° C | 89% | 1024.1 hPa | 0 mm | 1.34 m/s, 331° | - | - |
| 1778023815 | 14.44° C | 89% | 1024.1 hPa | 0 mm | 0.45 m/s, 265° | - | - |
| 1778022913 | 14.44° C | 88% | 1024.1 hPa | 0 mm | 0 m/s | - | - |
| 1778022010 | 14.44° C | 87% | 1024 hPa | 0 mm | 0.45 m/s, 248° | - | - |
| 1778021108 | 14.44° C | 87% | 1023.7 hPa | 0 mm | 0.45 m/s, 310° | - | - |
* Rain latest hour (hover to see other rain measurements)
** Current wind speed in m/s (hover to see current wind gust speed)